createdAt,value
2023-05-18T00:02:09.493Z,10.60
2023-05-18T00:04:37.021Z,10.61
2023-05-18T00:07:04.848Z,10.39
2023-05-18T00:09:36.537Z,10.39
2023-05-18T00:12:05.242Z,10.53
2023-05-18T00:14:31.887Z,10.55
2023-05-18T00:16:58.653Z,10.57
2023-05-18T00:19:25.489Z,10.28
2023-05-18T00:21:52.704Z,10.30
2023-05-18T00:24:20.389Z,10.33
2023-05-18T00:26:48.061Z,10.49
2023-05-18T00:29:15.881Z,10.34
2023-05-18T00:31:42.683Z,10.44
2023-05-18T00:34:10.020Z,10.46
2023-05-18T00:36:37.849Z,10.31
2023-05-18T00:39:05.533Z,10.64
2023-05-18T00:41:33.291Z,10.39
2023-05-18T00:44:00.721Z,10.28
2023-05-18T00:46:28.680Z,10.29
2023-05-18T00:48:56.651Z,10.36
2023-05-18T00:51:24.220Z,10.72
2023-05-18T00:53:53.562Z,10.27
2023-05-18T00:56:21.908Z,10.26
2023-05-18T00:58:48.635Z,10.16
2023-05-18T01:01:15.336Z,10.33
2023-05-18T01:03:42.294Z,10.21
2023-05-18T01:06:09.817Z,10.07
2023-05-18T01:08:37.637Z,10.16
2023-05-18T01:11:22.152Z,10.15
2023-05-18T01:14:20.314Z,10.09
2023-05-18T01:17:06.036Z,10.23
2023-05-18T01:19:32.734Z,10.19
2023-05-18T01:22:33.225Z,10.21
2023-05-18T01:25:05.525Z,10.18
2023-05-18T01:27:32.292Z,10.18
2023-05-18T01:29:59.211Z,10.22
2023-05-18T01:32:25.836Z,10.30
2023-05-18T01:34:54.996Z,10.30
2023-05-18T01:37:24.368Z,10.36
2023-05-18T01:39:51.087Z,10.16
2023-05-18T01:42:26.348Z,10.05
2023-05-18T01:44:58.719Z,10.05
2023-05-18T01:47:28.785Z,10.04
2023-05-18T01:50:12.111Z,10.06
2023-05-18T01:52:52.268Z,10.11
2023-05-18T01:55:20.543Z,10.19
2023-05-18T01:57:49.890Z,10.33
2023-05-18T02:00:17.273Z,10.25
2023-05-18T02:02:44.875Z,10.28
2023-05-18T02:05:11.603Z,10.09
2023-05-18T02:07:39.362Z,10.19
2023-05-18T02:10:07.398Z,10.23
2023-05-18T02:12:34.065Z,9.96
2023-05-18T02:15:00.754Z,10.03
2023-05-18T02:17:27.522Z,10.17
2023-05-18T02:19:54.135Z,10.22
2023-05-18T02:22:20.808Z,10.29
2023-05-18T02:24:47.504Z,10.33
2023-05-18T02:27:14.275Z,10.15
2023-05-18T02:29:40.996Z,10.19
2023-05-18T02:32:08.164Z,10.08
2023-05-18T02:34:34.901Z,10.14
2023-05-18T02:37:01.672Z,10.20
2023-05-18T02:39:28.628Z,10.46
2023-05-18T02:41:55.285Z,10.15
2023-05-18T02:44:22.193Z,10.15
2023-05-18T02:46:48.958Z,10.21
2023-05-18T02:49:15.896Z,10.34
2023-05-18T02:51:42.764Z,10.11
2023-05-18T02:54:09.518Z,10.36
2023-05-18T02:56:36.161Z,10.13
2023-05-18T02:59:02.836Z,10.02
2023-05-18T03:01:29.820Z,10.01
2023-05-18T03:03:56.910Z,10.00
2023-05-18T03:06:23.577Z,10.05
2023-05-18T03:08:51.134Z,9.93
2023-05-18T03:11:17.770Z,10.01
2023-05-18T03:13:44.508Z,10.07
2023-05-18T03:16:11.238Z,10.08
2023-05-18T03:18:38.028Z,9.90
2023-05-18T03:21:05.145Z,9.81
2023-05-18T03:23:32.118Z,9.84
2023-05-18T03:25:58.824Z,9.92
2023-05-18T03:28:25.492Z,9.95
2023-05-18T03:30:52.144Z,10.01
2023-05-18T03:33:18.979Z,10.01
2023-05-18T03:35:47.796Z,9.94
2023-05-18T03:38:15.532Z,9.88
2023-05-18T03:40:42.511Z,10.00
2023-05-18T03:43:09.174Z,9.74
2023-05-18T03:45:35.931Z,9.65
2023-05-18T03:48:03.128Z,9.89
2023-05-18T03:50:29.886Z,9.74
2023-05-18T03:52:56.490Z,9.80
2023-05-18T03:55:23.201Z,9.85
2023-05-18T03:57:50.038Z,10.02
2023-05-18T04:00:17.168Z,9.93
2023-05-18T04:02:43.983Z,9.76
2023-05-18T04:05:10.656Z,9.95
2023-05-18T04:07:37.636Z,9.74
2023-05-18T04:10:04.794Z,9.75
2023-05-18T04:12:31.435Z,9.87
2023-05-18T04:14:58.121Z,9.92
2023-05-18T04:17:24.735Z,9.90
2023-05-18T04:19:51.449Z,9.87
2023-05-18T04:22:18.214Z,9.93
2023-05-18T04:24:44.905Z,9.74
2023-05-18T04:27:11.820Z,9.72
2023-05-18T04:29:38.642Z,9.72
2023-05-18T04:32:08.530Z,9.77
2023-05-18T04:34:35.921Z,9.62
2023-05-18T04:37:05.677Z,9.63
2023-05-18T04:39:33.621Z,9.76
2023-05-18T04:42:01.602Z,9.96
2023-05-18T04:44:29.050Z,9.59
2023-05-18T04:46:55.775Z,9.61
2023-05-18T04:49:22.635Z,9.58
2023-05-18T04:51:50.266Z,9.47
2023-05-18T04:54:16.961Z,9.71
2023-05-18T04:56:43.622Z,9.55
2023-05-18T04:59:10.285Z,9.69
2023-05-18T05:01:37.107Z,9.86
2023-05-18T05:04:03.983Z,9.85
2023-05-18T05:06:30.723Z,9.64
2023-05-18T05:08:57.606Z,9.86
2023-05-18T05:11:24.373Z,9.87
2023-05-18T05:13:51.350Z,9.91
2023-05-18T05:16:18.107Z,9.98
2023-05-18T05:18:47.211Z,9.88
2023-05-18T05:21:14.220Z,9.93
2023-05-18T05:23:42.693Z,9.79
2023-05-18T05:26:09.336Z,9.84
2023-05-18T05:28:36.020Z,9.96
2023-05-18T05:31:03.200Z,9.94
2023-05-18T05:33:29.954Z,9.81
2023-05-18T05:35:56.599Z,9.68
2023-05-18T05:38:23.206Z,9.83
2023-05-18T05:40:49.898Z,9.98
2023-05-18T05:43:16.700Z,10.02
2023-05-18T05:45:43.368Z,9.85
2023-05-18T05:48:11.856Z,9.93
2023-05-18T05:50:40.065Z,9.85
2023-05-18T05:53:06.765Z,9.77
2023-05-18T05:55:33.627Z,9.84
2023-05-18T05:58:00.450Z,9.77
2023-05-18T06:00:28.246Z,9.89
2023-05-18T06:02:56.044Z,9.77
2023-05-18T06:05:22.929Z,9.94
2023-05-18T06:07:49.576Z,10.02
2023-05-18T06:10:16.395Z,9.85
2023-05-18T06:12:43.191Z,9.94
2023-05-18T06:15:10.326Z,9.91
2023-05-18T06:17:37.105Z,9.92
2023-05-18T06:20:03.897Z,9.97
2023-05-18T06:22:30.612Z,9.71
2023-05-18T06:24:57.247Z,9.80
2023-05-18T06:27:24.113Z,9.85
2023-05-18T06:29:50.758Z,9.70
2023-05-18T06:32:17.720Z,9.83
2023-05-18T06:34:44.585Z,9.99
2023-05-18T06:37:11.384Z,10.00
2023-05-18T06:39:39.531Z,10.16
2023-05-18T06:42:06.504Z,10.02
2023-05-18T06:44:33.363Z,9.83
2023-05-18T06:46:59.976Z,9.90
2023-05-18T06:49:26.592Z,10.08
2023-05-18T06:51:55.798Z,9.95
2023-05-18T06:54:22.588Z,9.86
2023-05-18T06:56:49.205Z,9.93
2023-05-18T06:59:15.929Z,9.81
2023-05-18T07:01:42.881Z,10.06
2023-05-18T07:04:09.609Z,9.97
2023-05-18T07:06:36.346Z,9.94
2023-05-18T07:09:03.598Z,9.97
2023-05-18T07:11:30.251Z,10.01
2023-05-18T07:13:57.010Z,9.95
2023-05-18T07:16:23.661Z,9.97
2023-05-18T07:18:50.365Z,9.95
2023-05-18T07:21:17.073Z,9.81
2023-05-18T07:23:43.731Z,9.95
2023-05-18T07:26:11.154Z,9.86
2023-05-18T07:28:38.664Z,10.03
2023-05-18T07:31:05.668Z,9.92
2023-05-18T07:33:32.331Z,9.98
2023-05-18T07:35:59.005Z,9.97
2023-05-18T07:38:25.686Z,10.09
2023-05-18T07:40:52.356Z,10.04
2023-05-18T07:43:19.009Z,10.22
2023-05-18T07:45:45.695Z,10.50
2023-05-18T07:48:12.382Z,10.75
2023-05-18T07:50:39.065Z,10.64
2023-05-18T07:53:05.660Z,10.42
2023-05-18T07:55:32.515Z,10.17
2023-05-18T07:57:59.449Z,10.32
2023-05-18T08:00:26.068Z,10.38
2023-05-18T08:02:52.974Z,10.42
2023-05-18T08:05:20.103Z,10.30
2023-05-18T08:07:46.704Z,10.25
2023-05-18T08:10:13.351Z,10.43
2023-05-18T08:12:40.482Z,10.55
2023-05-18T08:15:08.115Z,10.57
2023-05-18T08:17:34.839Z,10.65
2023-05-18T08:20:01.508Z,10.53
2023-05-18T08:22:28.136Z,10.69
2023-05-18T08:24:54.852Z,10.83
2023-05-18T08:27:21.469Z,11.33
2023-05-18T08:29:48.135Z,11.00
2023-05-18T08:32:15.046Z,11.04
2023-05-18T08:34:41.901Z,10.71
2023-05-18T08:37:08.542Z,10.70
2023-05-18T08:39:35.181Z,10.78
2023-05-18T08:42:04.047Z,10.67
2023-05-18T08:45:09.622Z,10.79
2023-05-18T08:47:37.637Z,10.75
2023-05-18T08:50:09.015Z,11.05
2023-05-18T08:52:37.649Z,10.74
2023-05-18T08:55:08.458Z,10.96
2023-05-18T08:57:37.499Z,10.85
2023-05-18T09:00:04.876Z,10.75
2023-05-18T09:02:32.476Z,11.13
2023-05-18T09:04:59.325Z,11.12
2023-05-18T09:07:26.949Z,11.23
2023-05-18T09:09:55.392Z,11.32
2023-05-18T09:12:24.230Z,11.07
2023-05-18T09:14:51.615Z,11.26
2023-05-18T09:17:19.005Z,11.19
2023-05-18T09:19:45.640Z,11.36
2023-05-18T09:22:12.685Z,11.40
2023-05-18T09:24:39.346Z,11.44
2023-05-18T09:27:06.035Z,11.27
2023-05-18T09:29:33.860Z,11.10
2023-05-18T09:32:04.094Z,11.13
2023-05-18T09:34:42.086Z,11.45
2023-05-18T09:37:09.995Z,11.73
2023-05-18T09:39:38.943Z,11.79
2023-05-18T09:42:05.856Z,11.86
2023-05-18T09:44:34.771Z,12.46
2023-05-18T09:47:02.766Z,12.36
2023-05-18T09:49:30.697Z,12.41
2023-05-18T09:51:57.807Z,12.18
2023-05-18T09:54:24.640Z,11.95
2023-05-18T09:57:02.344Z,12.26
2023-05-18T09:59:36.265Z,12.11
2023-05-18T10:02:04.720Z,12.01
2023-05-18T10:04:44.228Z,12.04
2023-05-18T10:07:18.010Z,11.95
2023-05-18T10:09:45.825Z,12.04
2023-05-18T10:12:13.256Z,12.15
2023-05-18T10:14:45.449Z,11.97
2023-05-18T10:17:17.226Z,11.89
2023-05-18T10:19:45.114Z,11.86
2023-05-18T10:22:16.301Z,11.86
2023-05-18T10:24:46.276Z,12.30
2023-05-18T10:27:14.922Z,12.28
2023-05-18T10:29:42.293Z,12.24
2023-05-18T10:32:12.605Z,12.09
2023-05-18T10:34:40.594Z,11.85
2023-05-18T10:37:07.927Z,11.93
2023-05-18T10:39:36.814Z,12.00
2023-05-18T10:42:04.703Z,12.05
2023-05-18T10:44:31.887Z,12.12
2023-05-18T10:46:59.804Z,12.19
2023-05-18T10:49:27.379Z,12.38
2023-05-18T10:51:54.117Z,12.21
2023-05-18T10:54:21.561Z,12.28
2023-05-18T10:56:52.369Z,12.16
2023-05-18T10:59:20.146Z,12.13
2023-05-18T11:01:50.048Z,12.06
2023-05-18T11:04:17.699Z,12.18
2023-05-18T11:06:54.807Z,12.35
2023-05-18T11:09:25.339Z,12.40
2023-05-18T11:11:57.756Z,12.37
2023-05-18T11:14:30.717Z,12.15
2023-05-18T11:17:22.751Z,12.14
2023-05-18T11:20:04.718Z,12.19
2023-05-18T11:22:52.264Z,12.26
2023-05-18T11:25:24.915Z,12.10
2023-05-18T11:27:53.515Z,12.35
2023-05-18T11:30:31.524Z,12.45
2023-05-18T11:33:21.334Z,12.33
2023-05-18T11:36:12.097Z,12.12
2023-05-18T11:38:50.954Z,12.23
2023-05-18T11:41:36.547Z,12.47
2023-05-18T11:44:04.781Z,12.13
2023-05-18T11:46:31.612Z,12.09
2023-05-18T11:49:03.407Z,12.02
2023-05-18T11:51:33.542Z,12.22
2023-05-18T11:54:00.652Z,12.40
2023-05-18T11:56:31.316Z,12.36
2023-05-18T11:59:16.468Z,12.35
2023-05-18T12:01:43.979Z,12.80
2023-05-18T12:04:11.284Z,12.82
2023-05-18T12:06:38.276Z,12.81
2023-05-18T12:09:05.118Z,12.82
2023-05-18T12:11:32.851Z,12.89
2023-05-18T12:14:00.026Z,12.86
2023-05-18T12:16:27.248Z,12.67
2023-05-18T12:18:54.065Z,12.89
2023-05-18T12:21:24.077Z,12.95
2023-05-18T12:24:00.805Z,12.74
2023-05-18T12:26:28.608Z,12.96
2023-05-18T12:28:56.246Z,13.28
2023-05-18T12:31:23.733Z,12.94
2023-05-18T12:33:50.490Z,12.81
2023-05-18T12:36:17.605Z,12.87
2023-05-18T12:38:48.720Z,12.85
2023-05-18T12:41:27.780Z,12.66
2023-05-18T12:43:55.240Z,12.55
2023-05-18T12:46:22.958Z,12.98
2023-05-18T12:48:57.493Z,13.20
2023-05-18T12:51:25.105Z,12.81
2023-05-18T12:53:51.997Z,12.71
2023-05-18T12:56:18.642Z,12.69
2023-05-18T12:58:58.383Z,12.69
2023-05-18T13:01:25.883Z,12.79
2023-05-18T13:03:57.566Z,12.76
2023-05-18T13:06:25.134Z,12.44
2023-05-18T13:08:55.686Z,12.57
2023-05-18T13:11:26.206Z,12.98
2023-05-18T13:14:08.748Z,12.70
2023-05-18T13:16:38.992Z,12.70
2023-05-18T13:19:08.419Z,12.63
2023-05-18T13:21:35.879Z,12.70
2023-05-18T13:24:03.884Z,12.87
2023-05-18T13:26:30.973Z,12.90
2023-05-18T13:28:58.389Z,12.90
2023-05-18T13:31:25.226Z,12.79
2023-05-18T13:33:52.126Z,12.95
2023-05-18T13:36:18.872Z,12.95
2023-05-18T13:38:48.140Z,13.02
2023-05-18T13:41:15.085Z,13.12
2023-05-18T13:43:41.983Z,12.94
2023-05-18T13:46:09.116Z,12.96
2023-05-18T13:48:35.886Z,12.94
2023-05-18T13:51:02.576Z,12.93
2023-05-18T13:53:29.368Z,12.89
2023-05-18T13:55:57.847Z,13.09
2023-05-18T13:58:24.604Z,13.44
2023-05-18T14:00:51.283Z,13.34
2023-05-18T14:03:18.313Z,13.44
2023-05-18T14:05:45.152Z,12.95
2023-05-18T14:08:11.887Z,13.13
2023-05-18T14:10:38.536Z,13.22
2023-05-18T14:13:05.384Z,13.07
2023-05-18T14:15:32.228Z,13.50
2023-05-18T14:17:58.922Z,13.28
2023-05-18T14:20:25.579Z,13.55
2023-05-18T14:22:52.313Z,13.27
2023-05-18T14:25:18.962Z,13.43
2023-05-18T14:27:45.613Z,13.05
2023-05-18T14:30:12.438Z,12.85
2023-05-18T14:32:41.886Z,12.73
2023-05-18T14:35:08.783Z,12.81
2023-05-18T14:37:35.571Z,12.66
2023-05-18T14:40:02.284Z,12.87
2023-05-18T14:42:28.966Z,12.84
2023-05-18T14:44:55.599Z,12.85
2023-05-18T14:47:22.466Z,12.88
2023-05-18T14:49:49.249Z,12.82
2023-05-18T14:52:15.985Z,12.81
2023-05-18T14:54:42.683Z,12.78
2023-05-18T14:57:09.378Z,12.89
2023-05-18T14:59:36.032Z,12.94
2023-05-18T15:02:02.803Z,12.65
2023-05-18T15:04:29.557Z,12.62
2023-05-18T15:06:59.056Z,12.66
2023-05-18T15:09:26.882Z,12.50
2023-05-18T15:11:53.860Z,12.54
2023-05-18T15:14:20.500Z,12.85
2023-05-18T15:16:47.271Z,12.66
2023-05-18T15:19:14.063Z,12.42
2023-05-18T15:21:40.823Z,12.42
2023-05-18T15:24:07.675Z,12.56
2023-05-18T15:26:34.478Z,12.57
2023-05-18T15:29:01.139Z,12.57
2023-05-18T15:31:27.791Z,12.31
2023-05-18T15:33:54.550Z,12.38
2023-05-18T15:36:21.182Z,12.45
2023-05-18T15:38:48.037Z,12.55
2023-05-18T15:41:14.722Z,12.51
2023-05-18T15:43:41.436Z,12.62
2023-05-18T15:46:08.173Z,12.32
2023-05-18T15:48:35.069Z,12.33
2023-05-18T15:51:01.717Z,12.25
2023-05-18T15:53:28.478Z,12.43
2023-05-18T15:55:58.436Z,12.79
2023-05-18T15:58:26.008Z,12.41
2023-05-18T16:00:52.728Z,12.28
2023-05-18T16:03:19.645Z,12.38
2023-05-18T16:05:46.388Z,12.52
2023-05-18T16:08:13.118Z,12.67
2023-05-18T16:10:39.761Z,12.57
2023-05-18T16:13:06.386Z,12.62
2023-05-18T16:15:34.482Z,12.60
2023-05-18T16:18:01.282Z,12.86
2023-05-18T16:20:28.044Z,12.69
2023-05-18T16:22:54.918Z,12.70
2023-05-18T16:25:21.567Z,12.70
2023-05-18T16:27:48.329Z,12.90
2023-05-18T16:30:15.180Z,13.05
2023-05-18T16:32:44.504Z,12.99
2023-05-18T16:35:11.426Z,13.02
2023-05-18T16:37:38.670Z,12.99
2023-05-18T16:40:07.076Z,13.30
2023-05-18T16:42:34.129Z,13.47
2023-05-18T16:45:00.801Z,13.36
2023-05-18T16:47:27.574Z,13.00
2023-05-18T16:49:54.516Z,12.84
2023-05-18T16:52:21.197Z,12.64
2023-05-18T16:54:48.638Z,12.38
2023-05-18T16:57:15.647Z,12.38
2023-05-18T16:59:42.407Z,12.57
2023-05-18T17:02:09.163Z,12.54
2023-05-18T17:04:35.897Z,12.58
2023-05-18T17:07:02.518Z,12.45
2023-05-18T17:09:29.182Z,12.39
2023-05-18T17:11:56.088Z,12.20
2023-05-18T17:14:22.757Z,12.14
2023-05-18T17:16:49.457Z,12.32
2023-05-18T17:19:16.083Z,12.42
2023-05-18T17:21:45.621Z,12.47
2023-05-18T17:24:12.309Z,12.48
2023-05-18T17:26:38.958Z,12.57
2023-05-18T17:29:05.638Z,12.66
2023-05-18T17:31:32.382Z,12.78
2023-05-18T17:33:59.076Z,12.67
2023-05-18T17:36:25.914Z,12.49
2023-05-18T17:38:52.584Z,12.28
2023-05-18T17:41:19.226Z,12.56
2023-05-18T17:43:45.840Z,12.27
2023-05-18T17:46:12.572Z,12.45
2023-05-18T17:48:39.310Z,12.31
2023-05-18T17:51:05.963Z,12.09
2023-05-18T17:53:32.795Z,12.31
2023-05-18T17:55:59.653Z,12.31
2023-05-18T17:58:26.324Z,12.07
2023-05-18T18:00:52.966Z,12.00
2023-05-18T18:03:19.716Z,12.01
2023-05-18T18:05:46.568Z,12.00
2023-05-18T18:08:13.220Z,12.61
2023-05-18T18:10:39.885Z,12.39
2023-05-18T18:13:06.529Z,12.23
2023-05-18T18:15:33.164Z,11.96
2023-05-18T18:17:59.941Z,12.32
2023-05-18T18:20:26.750Z,12.48
2023-05-18T18:22:53.405Z,12.61
2023-05-18T18:25:20.019Z,12.85
2023-05-18T18:27:46.737Z,12.94
2023-05-18T18:30:14.101Z,13.10
2023-05-18T18:32:40.750Z,12.92
2023-05-18T18:35:10.550Z,13.02
2023-05-18T18:37:37.324Z,12.98
2023-05-18T18:40:06.060Z,12.50
2023-05-18T18:42:33.258Z,12.38
2023-05-18T18:44:59.972Z,12.43
2023-05-18T18:47:26.635Z,12.30
2023-05-18T18:49:53.292Z,12.15
2023-05-18T18:52:20.314Z,12.22
2023-05-18T18:54:47.028Z,12.15
2023-05-18T18:57:13.636Z,12.15
2023-05-18T18:59:40.330Z,12.18
2023-05-18T19:02:07.733Z,12.39
2023-05-18T19:04:34.564Z,12.47
2023-05-18T19:07:01.262Z,12.48
2023-05-18T19:09:29.100Z,12.55
2023-05-18T19:11:56.363Z,12.55
2023-05-18T19:14:23.110Z,12.40
2023-05-18T19:16:49.934Z,12.22
2023-05-18T19:19:16.708Z,12.32
2023-05-18T19:21:43.356Z,12.29
2023-05-18T19:24:10.020Z,12.32
2023-05-18T19:26:36.883Z,12.37
2023-05-18T19:29:03.707Z,12.18
2023-05-18T19:31:30.606Z,12.15
2023-05-18T19:34:00.453Z,12.36
2023-05-18T19:36:27.458Z,12.38
2023-05-18T19:38:54.105Z,12.32
2023-05-18T19:41:22.844Z,12.43
2023-05-18T19:43:49.732Z,12.15
2023-05-18T19:46:16.417Z,12.33
2023-05-18T19:48:43.083Z,12.36
2023-05-18T19:51:09.758Z,12.40
2023-05-18T19:53:36.500Z,12.30
2023-05-18T19:56:03.164Z,12.52
2023-05-18T19:58:29.808Z,12.36
2023-05-18T20:00:56.564Z,12.37
2023-05-18T20:03:23.374Z,12.43
2023-05-18T20:05:50.230Z,12.45
2023-05-18T20:08:16.899Z,12.41
2023-05-18T20:10:43.582Z,12.49
2023-05-18T20:13:10.329Z,12.53
2023-05-18T20:15:36.929Z,12.55
2023-05-18T20:18:06.612Z,12.52
2023-05-18T20:20:33.878Z,12.52
2023-05-18T20:23:00.730Z,12.43
2023-05-18T20:25:27.789Z,12.53
2023-05-18T20:27:54.523Z,12.60
2023-05-18T20:30:21.461Z,12.54
2023-05-18T20:32:48.112Z,12.64
2023-05-18T20:35:14.786Z,12.59
2023-05-18T20:37:41.663Z,12.66
2023-05-18T20:40:08.947Z,12.60
2023-05-18T20:42:35.841Z,12.61
2023-05-18T20:45:02.504Z,12.57
2023-05-18T20:47:29.160Z,12.49
2023-05-18T20:49:55.933Z,12.40
2023-05-18T20:52:22.571Z,12.51
2023-05-18T20:54:49.330Z,12.47
2023-05-18T20:57:16.216Z,12.49
2023-05-18T20:59:42.978Z,12.84
2023-05-18T21:02:09.623Z,12.97
2023-05-18T21:04:36.341Z,12.89
2023-05-18T21:07:03.056Z,12.73
2023-05-18T21:09:29.691Z,12.93
2023-05-18T21:11:56.328Z,12.93
2023-05-18T21:14:22.987Z,12.74
2023-05-18T21:16:49.703Z,12.64
2023-05-18T21:19:16.500Z,12.40
2023-05-18T21:21:43.448Z,12.47
2023-05-18T21:24:10.757Z,12.56
2023-05-18T21:26:37.491Z,12.42
2023-05-18T21:29:04.136Z,12.59
2023-05-18T21:31:33.865Z,12.69
2023-05-18T21:34:00.558Z,13.02
2023-05-18T21:36:28.527Z,13.18
2023-05-18T21:38:55.202Z,12.94
2023-05-18T21:41:21.858Z,12.75
2023-05-18T21:43:48.494Z,12.75
2023-05-18T21:46:15.266Z,12.62
2023-05-18T21:48:43.069Z,12.62
2023-05-18T21:51:09.995Z,12.70
2023-05-18T21:53:36.652Z,13.10
2023-05-18T21:56:03.476Z,13.16
2023-05-18T21:58:30.103Z,13.02
2023-05-18T22:00:56.919Z,12.90
2023-05-18T22:03:23.560Z,13.01
2023-05-18T22:05:50.438Z,12.90
2023-05-18T22:08:17.092Z,13.02
2023-05-18T22:10:43.727Z,13.09
2023-05-18T22:13:10.429Z,13.46
2023-05-18T22:15:37.098Z,13.07
2023-05-18T22:18:04.104Z,13.25
2023-05-18T22:20:31.127Z,13.42
2023-05-18T22:23:00.714Z,13.27
2023-05-18T22:25:27.484Z,13.19
2023-05-18T22:27:57.045Z,13.41
2023-05-18T22:30:23.678Z,13.15
2023-05-18T22:32:51.143Z,12.89
2023-05-18T22:35:17.980Z,12.77
2023-05-18T22:37:45.544Z,12.76
2023-05-18T22:40:12.782Z,12.57
2023-05-18T22:42:39.450Z,12.52
2023-05-18T22:45:06.602Z,12.61
2023-05-18T22:47:33.373Z,12.63
2023-05-18T22:50:00.067Z,12.70
2023-05-18T22:52:26.693Z,12.37
2023-05-18T22:54:53.449Z,12.38
2023-05-18T22:57:20.088Z,12.56
2023-05-18T22:59:46.788Z,12.61
2023-05-18T23:02:13.483Z,12.53
2023-05-18T23:04:40.208Z,12.33
2023-05-18T23:07:07.328Z,12.51
2023-05-18T23:09:33.974Z,12.61
2023-05-18T23:12:00.704Z,12.56
2023-05-18T23:14:27.371Z,11.74
2023-05-18T23:16:54.007Z,11.75
2023-05-18T23:19:20.754Z,11.86
2023-05-18T23:21:47.539Z,12.04
2023-05-18T23:24:14.994Z,11.98
2023-05-18T23:26:42.561Z,11.67
2023-05-18T23:29:09.595Z,11.33
2023-05-18T23:31:36.837Z,11.56
2023-05-18T23:34:03.950Z,11.87
2023-05-18T23:36:32.779Z,11.96
2023-05-18T23:38:59.662Z,12.51
2023-05-18T23:41:28.246Z,12.63
2023-05-18T23:43:56.007Z,12.48
2023-05-18T23:46:23.604Z,12.49
2023-05-18T23:48:50.973Z,12.68
2023-05-18T23:51:18.700Z,12.31
2023-05-18T23:53:46.910Z,12.25
2023-05-18T23:56:14.324Z,12.14
2023-05-18T23:59:01.121Z,12.14
